EHKD/DHR METAR and TAF weather

Enter ICAO airport designator
Station Type Date Time Source
EHKD METAR 2019/06/18 13:25 UTC NOAA

EHKD 181325Z AUTO 28006KT 240V320 9999 OVC170 21/12 Q1014 BLU 30009KT CAVOK


Station Type Date Time Source
EHKD Decoded METAR 2019/06/18 13:25 UTC NOAA

De Kooy, Netherlands (EHKD) 52-55N 004-47E 14M
Jun 18, 2019 - 09:25 AM EDT / 2019.06.18 1325 UTC
Wind: from the W (280 degrees) at 7 MPH (6 KT) (direction variable):0
Visibility: greater than 7 mile(s):0
Sky conditions: overcast
Temperature: 69 F (21 C)
Dew Point: 53 F (12 C)
Relative Humidity: 56%
Pressure (altimeter): 29.94 in. Hg (1014 hPa)
ob: EHKD 181325Z AUTO 28006KT 240V320 9999 OVC170 21/12 Q1014 BLU 30009KT CAVOK
cycle: 13

Station Type Date Time Source
EHKD TAF 2019/06/18 13:06 UTC NOAA

TAF COR EHKD 181206Z 1813/1901 30008KT CAVOK
BECMG 1818/1821 07014KT PROB30 1823/1824 SCT070CB

Example: see airport list